createdAt,value
2022-12-08T00:03:54.973Z,0.79
2022-12-08T00:09:37.943Z,0.76
2022-12-08T00:15:04.313Z,0.76
2022-12-08T00:20:31.002Z,0.76
2022-12-08T00:25:56.962Z,0.73
2022-12-08T00:31:26.056Z,0.72
2022-12-08T00:36:54.994Z,0.71
2022-12-08T00:42:23.966Z,0.71
2022-12-08T00:47:48.962Z,0.69
2022-12-08T00:53:15.979Z,0.69
2022-12-08T00:58:46.982Z,0.72
2022-12-08T01:04:13.972Z,0.75
2022-12-08T01:09:40.960Z,0.79
2022-12-08T01:15:05.999Z,0.80
2022-12-08T01:20:30.013Z,0.81
2022-12-08T01:25:57.992Z,0.85
2022-12-08T01:31:28.087Z,0.90
2022-12-08T01:36:55.016Z,0.95
2022-12-08T01:42:22.005Z,0.97
2022-12-08T01:47:51.034Z,0.97
2022-12-08T01:53:22.041Z,1.02
2022-12-08T01:58:59.015Z,1.03
2022-12-08T02:04:24.035Z,1.04
2022-12-08T02:09:49.993Z,1.07
2022-12-08T02:15:19.009Z,1.10
2022-12-08T02:20:57.023Z,1.10
2022-12-08T02:27:00.047Z,1.04
2022-12-08T02:32:51.987Z,1.05
2022-12-08T02:38:30.041Z,1.03
2022-12-08T02:44:00.015Z,1.03
2022-12-08T02:49:25.023Z,1.03
2022-12-08T02:55:03.001Z,1.04
2022-12-08T03:00:31.013Z,1.06
2022-12-08T03:06:16.002Z,1.07
2022-12-08T03:11:49.021Z,1.11
2022-12-08T03:17:16.049Z,1.12
2022-12-08T03:22:42.064Z,1.15
2022-12-08T03:28:10.030Z,1.16
2022-12-08T03:33:38.040Z,1.18
2022-12-08T03:39:06.052Z,1.21
2022-12-08T03:44:34.078Z,1.25
2022-12-08T03:49:58.066Z,1.27
2022-12-08T03:55:23.065Z,1.29
2022-12-08T04:00:50.039Z,1.23
2022-12-08T04:06:16.029Z,1.06
2022-12-08T04:11:40.036Z,1.00
2022-12-08T04:17:08.069Z,1.00
2022-12-08T04:22:33.054Z,0.96
2022-12-08T04:27:58.089Z,0.89
2022-12-08T04:33:25.026Z,0.86
2022-12-08T04:38:50.043Z,0.83
2022-12-08T04:44:14.095Z,0.78
2022-12-08T04:49:42.068Z,0.76
2022-12-08T04:55:07.342Z,0.74
2022-12-08T05:00:32.130Z,0.71
2022-12-08T05:06:00.094Z,0.66
2022-12-08T05:11:26.098Z,0.60
2022-12-08T05:16:50.141Z,0.57
2022-12-08T05:22:18.065Z,0.50
2022-12-08T05:27:42.079Z,0.45
2022-12-08T05:33:07.103Z,0.41
2022-12-08T05:38:34.090Z,0.38
2022-12-08T05:43:59.095Z,0.33
2022-12-08T05:49:23.098Z,0.29
2022-12-08T05:54:51.083Z,0.23
2022-12-08T06:00:15.148Z,0.22
2022-12-08T06:05:42.084Z,0.17
2022-12-08T06:11:09.077Z,0.11
2022-12-08T06:16:35.155Z,0.09
2022-12-08T06:21:59.115Z,0.05
2022-12-08T06:27:27.109Z,0.03
2022-12-08T06:32:52.109Z,-0.01
2022-12-08T06:38:17.092Z,-0.07
2022-12-08T06:43:44.085Z,-0.14
2022-12-08T06:49:09.157Z,-0.19
2022-12-08T06:54:33.166Z,-0.21
2022-12-08T07:00:01.381Z,-0.24
2022-12-08T07:05:25.157Z,-0.19
2022-12-08T07:10:51.212Z,-0.22
2022-12-08T07:16:21.218Z,-0.22
2022-12-08T07:21:46.104Z,-0.18
2022-12-08T07:27:10.138Z,-0.14
2022-12-08T07:32:39.222Z,-0.10
2022-12-08T07:38:04.122Z,-0.10
2022-12-08T07:43:29.135Z,-0.07
2022-12-08T07:48:56.146Z,0.01
2022-12-08T07:54:22.148Z,0.03
2022-12-08T07:59:53.123Z,0.06
2022-12-08T08:05:22.121Z,0.15
2022-12-08T08:10:47.150Z,0.24
2022-12-08T08:16:13.292Z,0.35
2022-12-08T08:21:47.153Z,0.45
2022-12-08T08:27:14.173Z,0.56
2022-12-08T08:32:38.176Z,0.70
2022-12-08T08:38:06.159Z,0.79
2022-12-08T08:43:39.197Z,0.85
2022-12-08T08:49:04.184Z,0.89
2022-12-08T08:54:31.165Z,0.88
2022-12-08T09:00:02.503Z,0.83
2022-12-08T09:05:27.168Z,0.81
2022-12-08T09:10:54.177Z,0.80
2022-12-08T09:16:21.263Z,0.79
2022-12-08T09:21:45.185Z,0.88
2022-12-08T09:27:13.161Z,0.94
2022-12-08T09:32:37.218Z,0.98
2022-12-08T09:38:02.206Z,1.02
2022-12-08T09:43:43.161Z,1.10
2022-12-08T09:49:10.171Z,1.18
2022-12-08T09:54:37.218Z,1.32
2022-12-08T10:00:16.190Z,1.44
2022-12-08T10:05:49.198Z,1.53
2022-12-08T10:11:16.165Z,1.63
2022-12-08T10:16:49.221Z,1.69
2022-12-08T10:22:13.206Z,1.77
2022-12-08T10:27:38.185Z,1.88
2022-12-08T10:33:07.236Z,1.98
2022-12-08T10:38:36.221Z,2.08
2022-12-08T10:44:03.200Z,2.18
2022-12-08T10:49:39.183Z,2.22
2022-12-08T10:55:08.198Z,2.29
2022-12-08T11:00:36.305Z,2.29
2022-12-08T11:06:10.498Z,2.30
2022-12-08T11:11:49.192Z,2.27
2022-12-08T11:17:22.265Z,2.26
2022-12-08T11:22:52.214Z,2.27
2022-12-08T11:28:19.209Z,2.30
2022-12-08T11:33:44.198Z,2.34
2022-12-08T11:39:14.245Z,2.41
2022-12-08T11:44:48.237Z,2.52
2022-12-08T11:50:27.256Z,2.62
2022-12-08T11:56:00.224Z,2.73
2022-12-08T12:01:37.975Z,2.87
2022-12-08T12:07:37.283Z,2.99
2022-12-08T12:13:15.222Z,3.15
2022-12-08T12:18:52.227Z,3.13
2022-12-08T12:24:26.063Z,3.15
2022-12-08T12:30:02.498Z,3.10
2022-12-08T12:35:32.301Z,3.10
2022-12-08T12:40:58.227Z,3.06
2022-12-08T12:46:53.277Z,3.02
2022-12-08T12:52:58.255Z,2.99
2022-12-08T12:58:54.279Z,2.97
2022-12-08T13:04:20.246Z,2.96
2022-12-08T13:09:52.252Z,2.94
2022-12-08T13:15:27.284Z,2.99
2022-12-08T13:20:58.233Z,3.04
2022-12-08T13:26:34.246Z,3.06
2022-12-08T13:32:01.267Z,3.07
2022-12-08T13:37:39.685Z,3.03
2022-12-08T13:43:20.272Z,3.04
2022-12-08T13:50:32.415Z,3.05
2022-12-08T14:00:40.296Z,2.99
2022-12-08T14:06:13.362Z,3.02
2022-12-08T14:11:45.278Z,3.01
2022-12-08T14:17:16.261Z,3.02
2022-12-08T14:22:48.284Z,3.00
2022-12-08T14:28:14.286Z,2.99
2022-12-08T14:33:41.335Z,2.98
2022-12-08T14:39:07.306Z,2.96
2022-12-08T14:44:39.294Z,2.94
2022-12-08T14:50:07.739Z,2.92
2022-12-08T14:55:32.295Z,2.91
2022-12-08T15:01:01.310Z,2.87
2022-12-08T15:06:28.454Z,2.85
2022-12-08T15:11:53.298Z,2.83
2022-12-08T15:17:17.294Z,2.78
2022-12-08T15:22:45.332Z,2.73
2022-12-08T15:28:09.321Z,2.66
2022-12-08T15:33:35.305Z,2.58
2022-12-08T15:39:03.372Z,2.50
2022-12-08T15:44:28.365Z,2.45
2022-12-08T15:49:52.385Z,2.38
2022-12-08T15:55:22.337Z,2.31
2022-12-08T16:00:54.663Z,2.30
2022-12-08T16:12:25.455Z,2.21
2022-12-08T16:17:51.377Z,2.14
2022-12-08T16:23:34.648Z,2.03
2022-12-08T16:29:04.428Z,1.97
2022-12-08T16:34:28.356Z,1.89
2022-12-08T16:39:54.394Z,1.84
2022-12-08T16:45:24.518Z,1.81
2022-12-08T16:50:54.359Z,1.74
2022-12-08T16:56:18.373Z,1.71
2022-12-08T17:01:46.323Z,1.74
2022-12-08T17:07:10.360Z,1.72
2022-12-08T17:12:35.369Z,1.72
2022-12-08T17:18:03.338Z,1.74
2022-12-08T17:23:28.351Z,1.74
2022-12-08T17:29:00.438Z,1.73
2022-12-08T17:34:30.367Z,1.73
2022-12-08T17:39:55.385Z,1.71
2022-12-08T17:45:21.362Z,1.72
2022-12-08T17:50:49.416Z,1.72
2022-12-08T17:56:21.445Z,1.73
2022-12-08T18:01:46.433Z,1.75
2022-12-08T18:07:13.389Z,1.75
2022-12-08T18:12:38.363Z,1.72
2022-12-08T18:18:04.381Z,1.71
2022-12-08T18:23:32.410Z,1.71
2022-12-08T18:28:57.402Z,1.67
2022-12-08T18:34:22.407Z,1.66
2022-12-08T18:39:49.408Z,1.64
2022-12-08T18:45:27.393Z,1.64
2022-12-08T18:50:52.420Z,1.57
2022-12-08T18:56:19.385Z,1.53
2022-12-08T19:01:47.412Z,1.50
2022-12-08T19:07:12.392Z,1.52
2022-12-08T19:12:40.403Z,1.52
2022-12-08T19:18:04.425Z,1.52
2022-12-08T19:23:29.408Z,1.55
2022-12-08T19:28:56.415Z,1.57
2022-12-08T19:34:23.442Z,1.59
2022-12-08T19:40:01.405Z,1.62
2022-12-08T19:45:31.519Z,1.64
2022-12-08T19:50:56.385Z,1.69
2022-12-08T19:56:21.550Z,1.69
2022-12-08T20:01:50.575Z,1.74
2022-12-08T20:07:15.447Z,1.75
2022-12-08T20:12:40.407Z,1.76
2022-12-08T20:18:11.444Z,1.77
2022-12-08T20:23:37.432Z,1.77
2022-12-08T20:29:02.533Z,1.80
2022-12-08T20:34:33.436Z,1.79
2022-12-08T20:40:04.466Z,1.76
2022-12-08T20:45:30.463Z,1.75
2022-12-08T20:50:57.612Z,1.79
2022-12-08T20:56:26.444Z,1.75
2022-12-08T21:01:50.531Z,1.65
2022-12-08T21:07:19.469Z,1.56
2022-12-08T21:12:43.613Z,1.56
2022-12-08T21:18:08.548Z,1.44
2022-12-08T21:23:35.618Z,1.42
2022-12-08T21:29:01.456Z,1.40
2022-12-08T21:34:26.656Z,1.40
2022-12-08T21:39:54.671Z,1.35
2022-12-08T21:45:19.494Z,1.34
2022-12-08T21:50:44.539Z,1.31
2022-12-08T21:56:12.648Z,1.31
2022-12-08T22:01:43.788Z,1.29
2022-12-08T22:07:08.510Z,1.29
2022-12-08T22:12:35.491Z,1.29
2022-12-08T22:18:00.609Z,1.28
2022-12-08T22:23:24.640Z,1.27
2022-12-08T22:28:52.693Z,1.26
2022-12-08T22:34:16.697Z,1.26
2022-12-08T22:39:42.559Z,1.23
2022-12-08T22:45:09.537Z,1.22
2022-12-08T22:50:34.719Z,1.18
2022-12-08T22:55:59.497Z,1.16
2022-12-08T23:01:42.559Z,1.17
2022-12-08T23:07:07.487Z,1.14
2022-12-08T23:12:31.518Z,1.10
2022-12-08T23:17:59.537Z,1.05
2022-12-08T23:23:23.519Z,1.01
2022-12-08T23:28:48.629Z,0.96
2022-12-08T23:34:15.530Z,0.88
2022-12-08T23:39:41.660Z,0.85
2022-12-08T23:45:05.527Z,0.82
2022-12-08T23:50:33.511Z,0.77
2022-12-08T23:55:58.708Z,0.74
